Terminal Aerodrome Forecast
Issued by NWS

Home | Current Version | Previous Version | Text Only | Print | Product List | Glossary On
Versions: 1 2 3 4 5 6 7 8 9 10 11 12 13 14 15 16 17 18 19 20 21
000
FTUS44 KLZK 280500 RRA
TAFLIT
TAF
KLIT 280541Z 2806/2906 05011KT P6SM BKN100
     FM280900 07012KT P6SM VCSH BKN050 OVC100
      TEMPO 2809/2813 5SM -SHRA BR OVC035
     FM281300 05010KT 5SM -RA BR SCT015 OVC040
      TEMPO 2813/2816 2SM -RA BR OVC015
     FM281600 04012KT 4SM -RA BR OVC012
     FM290300 35006KT P6SM SCT020 BKN050=

USA.gov is the U.S. government's official web portal to all federal, state and local government web resources and services.